sensor_id;sensor_type;location;lat;lon;timestamp;P1;durP1;ratioP1;P2;durP2;ratioP2
5845;SDS011;2949;50.778;7.094;2023-03-14T00:01:07;2.73;;;0.97;;
5845;SDS011;2949;50.778;7.094;2023-03-14T00:03:37;1.30;;;1.13;;
5845;SDS011;2949;50.778;7.094;2023-03-14T00:06:03;4.20;;;1.40;;
5845;SDS011;2949;50.778;7.094;2023-03-14T00:08:30;4.27;;;0.70;;
5845;SDS011;2949;50.778;7.094;2023-03-14T00:10:55;1.47;;;0.80;;
5845;SDS011;2949;50.778;7.094;2023-03-14T00:13:22;6.50;;;1.00;;
5845;SDS011;2949;50.778;7.094;2023-03-14T00:15:48;1.80;;;0.80;;
5845;SDS011;2949;50.778;7.094;2023-03-14T00:18:14;5.13;;;1.20;;
5845;SDS011;2949;50.778;7.094;2023-03-14T00:20:39;6.03;;;1.67;;
5845;SDS011;2949;50.778;7.094;2023-03-14T00:23:05;6.40;;;1.30;;
5845;SDS011;2949;50.778;7.094;2023-03-14T00:25:30;8.17;;;1.23;;
5845;SDS011;2949;50.778;7.094;2023-03-14T00:27:56;2.57;;;1.00;;
5845;SDS011;2949;50.778;7.094;2023-03-14T00:30:21;4.83;;;1.30;;
5845;SDS011;2949;50.778;7.094;2023-03-14T00:32:47;3.20;;;1.03;;
5845;SDS011;2949;50.778;7.094;2023-03-14T00:35:12;5.27;;;1.50;;
5845;SDS011;2949;50.778;7.094;2023-03-14T00:37:38;8.23;;;1.33;;
5845;SDS011;2949;50.778;7.094;2023-03-14T00:40:04;3.17;;;1.13;;
5845;SDS011;2949;50.778;7.094;2023-03-14T00:42:32;5.07;;;1.30;;
5845;SDS011;2949;50.778;7.094;2023-03-14T00:44:57;8.00;;;1.37;;
5845;SDS011;2949;50.778;7.094;2023-03-14T00:47:23;4.00;;;1.27;;
5845;SDS011;2949;50.778;7.094;2023-03-14T00:49:48;5.00;;;1.20;;
5845;SDS011;2949;50.778;7.094;2023-03-14T00:52:14;3.80;;;1.30;;
5845;SDS011;2949;50.778;7.094;2023-03-14T00:54:40;3.73;;;0.90;;
5845;SDS011;2949;50.778;7.094;2023-03-14T00:57:05;5.67;;;1.03;;
5845;SDS011;2949;50.778;7.094;2023-03-14T00:59:31;12.40;;;1.57;;
5845;SDS011;2949;50.778;7.094;2023-03-14T01:01:56;8.00;;;1.30;;
5845;SDS011;2949;50.778;7.094;2023-03-14T01:04:22;6.43;;;1.40;;
5845;SDS011;2949;50.778;7.094;2023-03-14T01:06:47;5.87;;;1.10;;
5845;SDS011;2949;50.778;7.094;2023-03-14T01:09:13;10.90;;;1.80;;
5845;SDS011;2949;50.778;7.094;2023-03-14T01:11:38;8.53;;;2.20;;
5845;SDS011;2949;50.778;7.094;2023-03-14T01:14:04;3.47;;;1.30;;
5845;SDS011;2949;50.778;7.094;2023-03-14T01:16:31;12.00;;;1.50;;
5845;SDS011;2949;50.778;7.094;2023-03-14T01:18:58;7.40;;;1.20;;
5845;SDS011;2949;50.778;7.094;2023-03-14T01:21:27;6.80;;;1.20;;
5845;SDS011;2949;50.778;7.094;2023-03-14T01:23:56;4.70;;;1.30;;
5845;SDS011;2949;50.778;7.094;2023-03-14T01:26:23;3.43;;;1.00;;
5845;SDS011;2949;50.778;7.094;2023-03-14T01:28:51;7.30;;;1.30;;
5845;SDS011;2949;50.778;7.094;2023-03-14T01:31:18;10.40;;;1.20;;
5845;SDS011;2949;50.778;7.094;2023-03-14T01:33:44;7.27;;;1.20;;
5845;SDS011;2949;50.778;7.094;2023-03-14T01:36:10;6.20;;;1.00;;
5845;SDS011;2949;50.778;7.094;2023-03-14T01:38:37;3.50;;;0.90;;
5845;SDS011;2949;50.778;7.094;2023-03-14T01:41:04;2.70;;;0.80;;
5845;SDS011;2949;50.778;7.094;2023-03-14T01:43:32;10.40;;;1.23;;
5845;SDS011;2949;50.778;7.094;2023-03-14T01:48:33;5.10;;;1.43;;
5845;SDS011;2949;50.778;7.094;2023-03-14T01:51:04;4.20;;;1.10;;
5845;SDS011;2949;50.778;7.094;2023-03-14T01:53:34;5.67;;;2.23;;
5845;SDS011;2949;50.778;7.094;2023-03-14T01:56:01;7.43;;;0.90;;
5845;SDS011;2949;50.778;7.094;2023-03-14T01:58:28;9.70;;;1.40;;
5845;SDS011;2949;50.778;7.094;2023-03-14T02:00:59;3.30;;;1.00;;
5845;SDS011;2949;50.778;7.094;2023-03-14T02:03:26;5.80;;;1.07;;
5845;SDS011;2949;50.778;7.094;2023-03-14T02:05:54;3.67;;;0.80;;
5845;SDS011;2949;50.778;7.094;2023-03-14T02:08:24;5.50;;;1.30;;
5845;SDS011;2949;50.778;7.094;2023-03-14T02:10:52;2.20;;;1.33;;
5845;SDS011;2949;50.778;7.094;2023-03-14T02:13:18;4.83;;;0.97;;
5845;SDS011;2949;50.778;7.094;2023-03-14T02:15:46;3.43;;;0.60;;
5845;SDS011;2949;50.778;7.094;2023-03-14T02:18:12;4.77;;;0.80;;
5845;SDS011;2949;50.778;7.094;2023-03-14T02:20:50;5.20;;;1.03;;
5845;SDS011;2949;50.778;7.094;2023-03-14T02:23:20;6.97;;;1.37;;
5845;SDS011;2949;50.778;7.094;2023-03-14T02:26:09;5.83;;;1.30;;
5845;SDS011;2949;50.778;7.094;2023-03-14T02:28:39;2.73;;;0.70;;
5845;SDS011;2949;50.778;7.094;2023-03-14T02:31:05;4.87;;;0.60;;
5845;SDS011;2949;50.778;7.094;2023-03-14T02:33:33;2.67;;;1.30;;
5845;SDS011;2949;50.778;7.094;2023-03-14T02:36:01;5.60;;;1.13;;
5845;SDS011;2949;50.778;7.094;2023-03-14T02:41:08;1.43;;;0.60;;
5845;SDS011;2949;50.778;7.094;2023-03-14T02:43:33;5.43;;;0.97;;
5845;SDS011;2949;50.778;7.094;2023-03-14T02:46:00;7.10;;;1.13;;
5845;SDS011;2949;50.778;7.094;2023-03-14T02:48:31;11.40;;;1.73;;
5845;SDS011;2949;50.778;7.094;2023-03-14T02:51:01;5.30;;;1.30;;
5845;SDS011;2949;50.778;7.094;2023-03-14T02:53:28;3.20;;;0.70;;
5845;SDS011;2949;50.778;7.094;2023-03-14T02:55:56;7.07;;;1.23;;
5845;SDS011;2949;50.778;7.094;2023-03-14T02:58:21;10.70;;;1.10;;
5845;SDS011;2949;50.778;7.094;2023-03-14T03:00:47;2.10;;;0.90;;
5845;SDS011;2949;50.778;7.094;2023-03-14T03:03:13;4.40;;;1.43;;
5845;SDS011;2949;50.778;7.094;2023-03-14T03:05:38;3.60;;;1.40;;
5845;SDS011;2949;50.778;7.094;2023-03-14T03:08:04;6.27;;;1.20;;
5845;SDS011;2949;50.778;7.094;2023-03-14T03:10:30;6.97;;;1.70;;
5845;SDS011;2949;50.778;7.094;2023-03-14T03:12:56;11.90;;;2.60;;
5845;SDS011;2949;50.778;7.094;2023-03-14T03:15:22;2.20;;;1.03;;
5845;SDS011;2949;50.778;7.094;2023-03-14T03:17:47;6.37;;;1.50;;
5845;SDS011;2949;50.778;7.094;2023-03-14T03:20:13;7.50;;;1.17;;
5845;SDS011;2949;50.778;7.094;2023-03-14T03:22:39;7.37;;;2.60;;
5845;SDS011;2949;50.778;7.094;2023-03-14T03:25:05;8.03;;;1.30;;
5845;SDS011;2949;50.778;7.094;2023-03-14T03:27:32;9.23;;;1.40;;
5845;SDS011;2949;50.778;7.094;2023-03-14T03:29:58;2.90;;;1.00;;
5845;SDS011;2949;50.778;7.094;2023-03-14T03:32:24;5.83;;;1.13;;
5845;SDS011;2949;50.778;7.094;2023-03-14T03:34:50;5.37;;;1.50;;
5845;SDS011;2949;50.778;7.094;2023-03-14T03:37:16;4.70;;;1.07;;
5845;SDS011;2949;50.778;7.094;2023-03-14T03:39:41;5.97;;;1.30;;
5845;SDS011;2949;50.778;7.094;2023-03-14T03:42:07;6.70;;;1.77;;
5845;SDS011;2949;50.778;7.094;2023-03-14T03:44:33;6.27;;;1.27;;
5845;SDS011;2949;50.778;7.094;2023-03-14T03:46:58;2.60;;;1.50;;
5845;SDS011;2949;50.778;7.094;2023-03-14T03:49:27;5.03;;;1.10;;
5845;SDS011;2949;50.778;7.094;2023-03-14T03:51:54;10.03;;;1.47;;
5845;SDS011;2949;50.778;7.094;2023-03-14T03:54:19;6.33;;;1.33;;
5845;SDS011;2949;50.778;7.094;2023-03-14T03:56:45;5.50;;;1.20;;
5845;SDS011;2949;50.778;7.094;2023-03-14T03:59:10;6.90;;;1.33;;
5845;SDS011;2949;50.778;7.094;2023-03-14T04:01:36;7.90;;;1.17;;
5845;SDS011;2949;50.778;7.094;2023-03-14T04:04:01;9.40;;;1.50;;
5845;SDS011;2949;50.778;7.094;2023-03-14T04:06:27;3.80;;;1.03;;
5845;SDS011;2949;50.778;7.094;2023-03-14T04:08:53;4.90;;;0.80;;
5845;SDS011;2949;50.778;7.094;2023-03-14T04:11:19;1.70;;;0.90;;
5845;SDS011;2949;50.778;7.094;2023-03-14T04:13:44;5.23;;;1.37;;
5845;SDS011;2949;50.778;7.094;2023-03-14T04:16:14;3.20;;;0.93;;
5845;SDS011;2949;50.778;7.094;2023-03-14T04:18:47;3.07;;;1.00;;
5845;SDS011;2949;50.778;7.094;2023-03-14T04:21:13;3.73;;;0.53;;
5845;SDS011;2949;50.778;7.094;2023-03-14T04:23:38;2.73;;;0.70;;
5845;SDS011;2949;50.778;7.094;2023-03-14T04:26:04;1.53;;;0.70;;
5845;SDS011;2949;50.778;7.094;2023-03-14T04:28:30;2.80;;;0.73;;
5845;SDS011;2949;50.778;7.094;2023-03-14T04:30:55;3.23;;;0.80;;
5845;SDS011;2949;50.778;7.094;2023-03-14T04:33:21;3.90;;;0.80;;
5845;SDS011;2949;50.778;7.094;2023-03-14T04:35:46;1.90;;;0.70;;
5845;SDS011;2949;50.778;7.094;2023-03-14T04:38:12;1.60;;;0.77;;
5845;SDS011;2949;50.778;7.094;2023-03-14T04:40:41;2.30;;;0.70;;
5845;SDS011;2949;50.778;7.094;2023-03-14T04:43:08;3.33;;;1.10;;
5845;SDS011;2949;50.778;7.094;2023-03-14T04:45:36;1.40;;;0.83;;
5845;SDS011;2949;50.778;7.094;2023-03-14T04:48:02;1.83;;;0.60;;
5845;SDS011;2949;50.778;7.094;2023-03-14T04:50:27;1.57;;;0.50;;
5845;SDS011;2949;50.778;7.094;2023-03-14T04:52:53;1.90;;;0.50;;
5845;SDS011;2949;50.778;7.094;2023-03-14T04:55:18;0.50;;;0.50;;
5845;SDS011;2949;50.778;7.094;2023-03-14T04:57:44;1.43;;;0.77;;
5845;SDS011;2949;50.778;7.094;2023-03-14T05:00:10;1.97;;;0.53;;
5845;SDS011;2949;50.778;7.094;2023-03-14T05:02:36;1.63;;;0.67;;
5845;SDS011;2949;50.778;7.094;2023-03-14T05:05:01;2.67;;;0.80;;
5845;SDS011;2949;50.778;7.094;2023-03-14T05:07:27;2.63;;;0.93;;
5845;SDS011;2949;50.778;7.094;2023-03-14T05:09:53;7.80;;;0.70;;
5845;SDS011;2949;50.778;7.094;2023-03-14T05:12:19;2.03;;;0.83;;
5845;SDS011;2949;50.778;7.094;2023-03-14T05:14:45;0.63;;;0.40;;
5845;SDS011;2949;50.778;7.094;2023-03-14T05:17:10;1.43;;;0.30;;
5845;SDS011;2949;50.778;7.094;2023-03-14T05:19:38;2.30;;;0.50;;
5845;SDS011;2949;50.778;7.094;2023-03-14T05:22:03;2.20;;;0.30;;
5845;SDS011;2949;50.778;7.094;2023-03-14T05:24:29;0.60;;;0.37;;
5845;SDS011;2949;50.778;7.094;2023-03-14T05:26:54;0.77;;;0.40;;
5845;SDS011;2949;50.778;7.094;2023-03-14T05:29:20;0.77;;;0.50;;
5845;SDS011;2949;50.778;7.094;2023-03-14T05:31:46;0.67;;;0.30;;
5845;SDS011;2949;50.778;7.094;2023-03-14T05:34:11;0.40;;;0.30;;
5845;SDS011;2949;50.778;7.094;2023-03-14T05:36:37;1.53;;;0.40;;
5845;SDS011;2949;50.778;7.094;2023-03-14T05:39:03;1.07;;;0.50;;
5845;SDS011;2949;50.778;7.094;2023-03-14T05:41:29;0.93;;;0.30;;
5845;SDS011;2949;50.778;7.094;2023-03-14T05:43:54;0.90;;;0.30;;
5845;SDS011;2949;50.778;7.094;2023-03-14T05:46:20;1.33;;;0.63;;
5845;SDS011;2949;50.778;7.094;2023-03-14T05:48:45;1.70;;;0.50;;
5845;SDS011;2949;50.778;7.094;2023-03-14T05:51:11;0.93;;;0.30;;
5845;SDS011;2949;50.778;7.094;2023-03-14T05:53:36;0.80;;;0.30;;
5845;SDS011;2949;50.778;7.094;2023-03-14T05:56:02;0.40;;;0.30;;
5845;SDS011;2949;50.778;7.094;2023-03-14T05:58:27;0.80;;;0.40;;
5845;SDS011;2949;50.778;7.094;2023-03-14T06:00:53;0.50;;;0.40;;
5845;SDS011;2949;50.778;7.094;2023-03-14T06:03:18;0.80;;;0.30;;
5845;SDS011;2949;50.778;7.094;2023-03-14T06:05:44;0.30;;;0.30;;
5845;SDS011;2949;50.778;7.094;2023-03-14T06:08:09;1.47;;;0.33;;
5845;SDS011;2949;50.778;7.094;2023-03-14T06:10:35;1.50;;;0.30;;
5845;SDS011;2949;50.778;7.094;2023-03-14T06:13:02;0.50;;;0.20;;
5845;SDS011;2949;50.778;7.094;2023-03-14T06:15:28;0.87;;;0.20;;
5845;SDS011;2949;50.778;7.094;2023-03-14T06:17:54;0.50;;;0.40;;
5845;SDS011;2949;50.778;7.094;2023-03-14T06:20:20;0.50;;;0.50;;
5845;SDS011;2949;50.778;7.094;2023-03-14T06:22:46;0.50;;;0.30;;
5845;SDS011;2949;50.778;7.094;2023-03-14T06:25:11;0.63;;;0.30;;
5845;SDS011;2949;50.778;7.094;2023-03-14T06:27:37;0.67;;;0.30;;
5845;SDS011;2949;50.778;7.094;2023-03-14T06:30:03;2.50;;;0.40;;
5845;SDS011;2949;50.778;7.094;2023-03-14T06:32:28;0.60;;;0.60;;
5845;SDS011;2949;50.778;7.094;2023-03-14T06:34:54;1.23;;;0.30;;
5845;SDS011;2949;50.778;7.094;2023-03-14T06:37:19;1.30;;;0.40;;
5845;SDS011;2949;50.778;7.094;2023-03-14T06:39:45;0.50;;;0.30;;
5845;SDS011;2949;50.778;7.094;2023-03-14T06:42:10;0.30;;;0.30;;
5845;SDS011;2949;50.778;7.094;2023-03-14T06:44:36;0.80;;;0.60;;
5845;SDS011;2949;50.778;7.094;2023-03-14T06:47:02;0.40;;;0.37;;
5845;SDS011;2949;50.778;7.094;2023-03-14T06:49:27;0.30;;;0.20;;
5845;SDS011;2949;50.778;7.094;2023-03-14T06:51:53;0.40;;;0.40;;
5845;SDS011;2949;50.778;7.094;2023-03-14T06:54:18;0.70;;;0.40;;
5845;SDS011;2949;50.778;7.094;2023-03-14T06:56:44;0.50;;;0.30;;
5845;SDS011;2949;50.778;7.094;2023-03-14T06:59:09;0.57;;;0.30;;
5845;SDS011;2949;50.778;7.094;2023-03-14T07:01:35;0.30;;;0.30;;
5845;SDS011;2949;50.778;7.094;2023-03-14T07:04:02;0.40;;;0.30;;
5845;SDS011;2949;50.778;7.094;2023-03-14T07:06:27;0.77;;;0.20;;
5845;SDS011;2949;50.778;7.094;2023-03-14T07:08:56;0.53;;;0.30;;
5845;SDS011;2949;50.778;7.094;2023-03-14T07:11:22;0.30;;;0.30;;
5845;SDS011;2949;50.778;7.094;2023-03-14T07:13:48;0.30;;;0.30;;
5845;SDS011;2949;50.778;7.094;2023-03-14T07:16:13;0.30;;;0.30;;
5845;SDS011;2949;50.778;7.094;2023-03-14T07:18:39;0.30;;;0.30;;
5845;SDS011;2949;50.778;7.094;2023-03-14T07:21:08;0.50;;;0.20;;
5845;SDS011;2949;50.778;7.094;2023-03-14T07:23:34;0.57;;;0.30;;
5845;SDS011;2949;50.778;7.094;2023-03-14T07:26:00;0.70;;;0.20;;
5845;SDS011;2949;50.778;7.094;2023-03-14T07:28:26;0.40;;;0.40;;
5845;SDS011;2949;50.778;7.094;2023-03-14T07:30:52;0.33;;;0.33;;
5845;SDS011;2949;50.778;7.094;2023-03-14T07:33:18;0.30;;;0.23;;
5845;SDS011;2949;50.778;7.094;2023-03-14T07:35:46;0.57;;;0.30;;
5845;SDS011;2949;50.778;7.094;2023-03-14T07:38:12;1.67;;;0.30;;
5845;SDS011;2949;50.778;7.094;2023-03-14T07:40:38;0.30;;;0.30;;
5845;SDS011;2949;50.778;7.094;2023-03-14T07:43:04;0.30;;;0.30;;
5845;SDS011;2949;50.778;7.094;2023-03-14T07:45:30;0.30;;;0.30;;
5845;SDS011;2949;50.778;7.094;2023-03-14T07:47:56;0.60;;;0.30;;
5845;SDS011;2949;50.778;7.094;2023-03-14T07:50:22;0.40;;;0.30;;
5845;SDS011;2949;50.778;7.094;2023-03-14T07:52:49;0.60;;;0.30;;
5845;SDS011;2949;50.778;7.094;2023-03-14T07:55:15;0.30;;;0.20;;
5845;SDS011;2949;50.778;7.094;2023-03-14T07:57:41;0.30;;;0.20;;
5845;SDS011;2949;50.778;7.094;2023-03-14T08:00:07;1.13;;;0.40;;
5845;SDS011;2949;50.778;7.094;2023-03-14T08:02:33;0.30;;;0.23;;
5845;SDS011;2949;50.778;7.094;2023-03-14T08:05:01;0.30;;;0.30;;
5845;SDS011;2949;50.778;7.094;2023-03-14T08:07:27;0.20;;;0.20;;
5845;SDS011;2949;50.778;7.094;2023-03-14T08:09:53;0.30;;;0.20;;
5845;SDS011;2949;50.778;7.094;2023-03-14T08:12:18;0.40;;;0.20;;
5845;SDS011;2949;50.778;7.094;2023-03-14T08:14:44;0.30;;;0.20;;
5845;SDS011;2949;50.778;7.094;2023-03-14T08:17:10;0.30;;;0.30;;
5845;SDS011;2949;50.778;7.094;2023-03-14T08:19:36;0.40;;;0.30;;
5845;SDS011;2949;50.778;7.094;2023-03-14T08:22:02;0.30;;;0.20;;
5845;SDS011;2949;50.778;7.094;2023-03-14T08:24:28;0.30;;;0.30;;
5845;SDS011;2949;50.778;7.094;2023-03-14T08:26:54;0.43;;;0.27;;
5845;SDS011;2949;50.778;7.094;2023-03-14T08:29:20;0.30;;;0.30;;
5845;SDS011;2949;50.778;7.094;2023-03-14T08:31:46;0.30;;;0.30;;
5845;SDS011;2949;50.778;7.094;2023-03-14T08:34:13;0.80;;;0.50;;
5845;SDS011;2949;50.778;7.094;2023-03-14T08:36:40;1.60;;;0.30;;
5845;SDS011;2949;50.778;7.094;2023-03-14T08:39:06;0.50;;;0.30;;
5845;SDS011;2949;50.778;7.094;2023-03-14T08:41:32;0.30;;;0.20;;
5845;SDS011;2949;50.778;7.094;2023-03-14T08:43:58;0.77;;;0.20;;
5845;SDS011;2949;50.778;7.094;2023-03-14T08:46:24;0.30;;;0.20;;
5845;SDS011;2949;50.778;7.094;2023-03-14T08:48:50;0.30;;;0.20;;
5845;SDS011;2949;50.778;7.094;2023-03-14T08:51:16;0.20;;;0.20;;
5845;SDS011;2949;50.778;7.094;2023-03-14T08:53:42;0.20;;;0.20;;
5845;SDS011;2949;50.778;7.094;2023-03-14T08:56:08;0.20;;;0.20;;
5845;SDS011;2949;50.778;7.094;2023-03-14T08:58:35;0.30;;;0.30;;
5845;SDS011;2949;50.778;7.094;2023-03-14T09:01:03;0.30;;;0.20;;
5845;SDS011;2949;50.778;7.094;2023-03-14T09:03:29;1.03;;;0.30;;
5845;SDS011;2949;50.778;7.094;2023-03-14T09:05:55;0.30;;;0.20;;
5845;SDS011;2949;50.778;7.094;2023-03-14T09:08:21;0.30;;;0.30;;
5845;SDS011;2949;50.778;7.094;2023-03-14T09:10:47;0.40;;;0.30;;
5845;SDS011;2949;50.778;7.094;2023-03-14T09:13:13;0.80;;;0.47;;
5845;SDS011;2949;50.778;7.094;2023-03-14T09:15:39;0.50;;;0.50;;
5845;SDS011;2949;50.778;7.094;2023-03-14T09:18:07;0.50;;;0.50;;
5845;SDS011;2949;50.778;7.094;2023-03-14T09:20:33;1.00;;;0.47;;
5845;SDS011;2949;50.778;7.094;2023-03-14T09:22:59;0.30;;;0.30;;
5845;SDS011;2949;50.778;7.094;2023-03-14T09:25:25;0.60;;;0.40;;
5845;SDS011;2949;50.778;7.094;2023-03-14T09:27:50;0.40;;;0.40;;
5845;SDS011;2949;50.778;7.094;2023-03-14T09:30:16;0.30;;;0.30;;
5845;SDS011;2949;50.778;7.094;2023-03-14T09:32:42;0.40;;;0.40;;
5845;SDS011;2949;50.778;7.094;2023-03-14T09:35:08;1.90;;;0.43;;
5845;SDS011;2949;50.778;7.094;2023-03-14T09:37:34;0.93;;;0.50;;
5845;SDS011;2949;50.778;7.094;2023-03-14T09:40:00;0.50;;;0.40;;
5845;SDS011;2949;50.778;7.094;2023-03-14T09:42:29;0.40;;;0.40;;
5845;SDS011;2949;50.778;7.094;2023-03-14T09:44:56;0.77;;;0.20;;
5845;SDS011;2949;50.778;7.094;2023-03-14T09:47:25;1.43;;;0.30;;
5845;SDS011;2949;50.778;7.094;2023-03-14T09:49:51;0.60;;;0.30;;
5845;SDS011;2949;50.778;7.094;2023-03-14T09:52:20;0.93;;;0.40;;
5845;SDS011;2949;50.778;7.094;2023-03-14T09:54:50;0.30;;;0.27;;
5845;SDS011;2949;50.778;7.094;2023-03-14T09:57:37;3.47;;;0.67;;
5845;SDS011;2949;50.778;7.094;2023-03-14T10:02:43;1.40;;;0.30;;
5845;SDS011;2949;50.778;7.094;2023-03-14T10:05:16;0.50;;;0.50;;
5845;SDS011;2949;50.778;7.094;2023-03-14T10:07:43;0.30;;;0.30;;
5845;SDS011;2949;50.778;7.094;2023-03-14T10:10:27;2.30;;;0.40;;
5845;SDS011;2949;50.778;7.094;2023-03-14T10:15:41;0.50;;;0.50;;
5845;SDS011;2949;50.778;7.094;2023-03-14T10:18:11;0.30;;;0.30;;
5845;SDS011;2949;50.778;7.094;2023-03-14T10:20:38;1.83;;;0.50;;
5845;SDS011;2949;50.778;7.094;2023-03-14T10:25:39;1.27;;;0.50;;
5845;SDS011;2949;50.778;7.094;2023-03-14T10:28:23;0.53;;;0.40;;
5845;SDS011;2949;50.778;7.094;2023-03-14T10:30:49;1.03;;;0.73;;
5845;SDS011;2949;50.778;7.094;2023-03-14T10:35:42;0.70;;;0.70;;
5845;SDS011;2949;50.778;7.094;2023-03-14T10:38:12;0.77;;;0.53;;
5845;SDS011;2949;50.778;7.094;2023-03-14T10:40:39;1.80;;;0.80;;
5845;SDS011;2949;50.778;7.094;2023-03-14T10:43:13;2.23;;;0.97;;
5845;SDS011;2949;50.778;7.094;2023-03-14T10:45:50;0.83;;;0.83;;
5845;SDS011;2949;50.778;7.094;2023-03-14T10:48:33;0.60;;;0.57;;
5845;SDS011;2949;50.778;7.094;2023-03-14T10:53:45;2.07;;;0.73;;
5845;SDS011;2949;50.778;7.094;2023-03-14T10:56:19;1.10;;;0.80;;
5845;SDS011;2949;50.778;7.094;2023-03-14T10:58:47;1.00;;;0.90;;
5845;SDS011;2949;50.778;7.094;2023-03-14T11:07:05;0.40;;;0.40;;
5845;SDS011;2949;50.778;7.094;2023-03-14T11:12:34;0.73;;;0.60;;
5845;SDS011;2949;50.778;7.094;2023-03-14T11:15:13;1.60;;;0.63;;
5845;SDS011;2949;50.778;7.094;2023-03-14T11:20:42;3.80;;;1.30;;
5845;SDS011;2949;50.778;7.094;2023-03-14T11:23:50;0.67;;;0.50;;
5845;SDS011;2949;50.778;7.094;2023-03-14T11:26:16;0.93;;;0.80;;
5845;SDS011;2949;50.778;7.094;2023-03-14T11:28:50;0.97;;;0.50;;
5845;SDS011;2949;50.778;7.094;2023-03-14T11:31:36;0.40;;;0.30;;
5845;SDS011;2949;50.778;7.094;2023-03-14T11:34:11;0.57;;;0.40;;
5845;SDS011;2949;50.778;7.094;2023-03-14T11:36:46;3.90;;;0.63;;
5845;SDS011;2949;50.778;7.094;2023-03-14T11:39:18;1.00;;;0.70;;
5845;SDS011;2949;50.778;7.094;2023-03-14T11:41:46;1.03;;;0.50;;
5845;SDS011;2949;50.778;7.094;2023-03-14T11:44:18;3.27;;;0.80;;
5845;SDS011;2949;50.778;7.094;2023-03-14T11:46:50;1.63;;;0.77;;
5845;SDS011;2949;50.778;7.094;2023-03-14T11:49:22;0.67;;;0.60;;
5845;SDS011;2949;50.778;7.094;2023-03-14T11:52:11;3.13;;;0.87;;
5845;SDS011;2949;50.778;7.094;2023-03-14T11:57:15;3.30;;;1.30;;
5845;SDS011;2949;50.778;7.094;2023-03-14T11:59:50;2.77;;;0.97;;
5845;SDS011;2949;50.778;7.094;2023-03-14T12:10:52;4.47;;;0.50;;
5845;SDS011;2949;50.778;7.094;2023-03-14T12:13:33;0.30;;;0.30;;
5845;SDS011;2949;50.778;7.094;2023-03-14T12:19:13;0.40;;;0.33;;
5845;SDS011;2949;50.778;7.094;2023-03-14T12:21:46;0.83;;;0.50;;
5845;SDS011;2949;50.778;7.094;2023-03-14T12:24:23;1.70;;;0.67;;
5845;SDS011;2949;50.778;7.094;2023-03-14T12:26:53;0.63;;;0.57;;
5845;SDS011;2949;50.778;7.094;2023-03-14T12:29:23;0.50;;;0.50;;
5845;SDS011;2949;50.778;7.094;2023-03-14T12:34:49;1.67;;;0.90;;
5845;SDS011;2949;50.778;7.094;2023-03-14T12:39:53;1.40;;;1.30;;
5845;SDS011;2949;50.778;7.094;2023-03-14T12:45:28;1.43;;;0.90;;
5845;SDS011;2949;50.778;7.094;2023-03-14T12:50:55;1.80;;;1.10;;
5845;SDS011;2949;50.778;7.094;2023-03-14T12:53:50;0.93;;;0.93;;
5845;SDS011;2949;50.778;7.094;2023-03-14T13:04:34;2.03;;;0.90;;
5845;SDS011;2949;50.778;7.094;2023-03-14T13:07:11;1.07;;;0.80;;
5845;SDS011;2949;50.778;7.094;2023-03-14T13:10:03;1.37;;;0.60;;
5845;SDS011;2949;50.778;7.094;2023-03-14T13:12:48;0.50;;;0.50;;
5845;SDS011;2949;50.778;7.094;2023-03-14T13:15:33;2.63;;;0.77;;
5845;SDS011;2949;50.778;7.094;2023-03-14T13:18:08;2.13;;;0.73;;
5845;SDS011;2949;50.778;7.094;2023-03-14T13:20:37;6.00;;;0.50;;
5845;SDS011;2949;50.778;7.094;2023-03-14T13:23:19;2.43;;;0.60;;
5845;SDS011;2949;50.778;7.094;2023-03-14T13:25:50;2.60;;;0.50;;
5845;SDS011;2949;50.778;7.094;2023-03-14T13:28:17;7.60;;;0.90;;
5845;SDS011;2949;50.778;7.094;2023-03-14T13:30:44;3.83;;;1.00;;
5845;SDS011;2949;50.778;7.094;2023-03-14T13:33:15;1.37;;;1.10;;
5845;SDS011;2949;50.778;7.094;2023-03-14T13:35:48;4.43;;;1.13;;
5845;SDS011;2949;50.778;7.094;2023-03-14T13:38:21;6.13;;;0.90;;
5845;SDS011;2949;50.778;7.094;2023-03-14T13:40:49;5.10;;;1.60;;
5845;SDS011;2949;50.778;7.094;2023-03-14T13:43:20;3.70;;;0.90;;
5845;SDS011;2949;50.778;7.094;2023-03-14T13:45:51;3.10;;;1.00;;
5845;SDS011;2949;50.778;7.094;2023-03-14T13:48:21;3.10;;;0.80;;
5845;SDS011;2949;50.778;7.094;2023-03-14T13:51:06;2.03;;;0.60;;
5845;SDS011;2949;50.778;7.094;2023-03-14T13:53:45;2.33;;;0.93;;
5845;SDS011;2949;50.778;7.094;2023-03-14T13:56:19;2.10;;;0.67;;
5845;SDS011;2949;50.778;7.094;2023-03-14T13:58:46;3.13;;;0.80;;
5845;SDS011;2949;50.778;7.094;2023-03-14T14:01:16;3.83;;;0.97;;
5845;SDS011;2949;50.778;7.094;2023-03-14T14:03:51;1.03;;;0.70;;
5845;SDS011;2949;50.778;7.094;2023-03-14T14:06:32;3.40;;;0.90;;
5845;SDS011;2949;50.778;7.094;2023-03-14T14:09:09;3.30;;;0.60;;
5845;SDS011;2949;50.778;7.094;2023-03-14T14:11:44;1.67;;;0.70;;
5845;SDS011;2949;50.778;7.094;2023-03-14T14:14:27;1.13;;;0.50;;
5845;SDS011;2949;50.778;7.094;2023-03-14T14:16:57;1.37;;;0.60;;
5845;SDS011;2949;50.778;7.094;2023-03-14T14:19:24;3.23;;;0.83;;
5845;SDS011;2949;50.778;7.094;2023-03-14T14:21:54;7.17;;;0.93;;
5845;SDS011;2949;50.778;7.094;2023-03-14T14:24:22;3.30;;;0.80;;
5845;SDS011;2949;50.778;7.094;2023-03-14T14:26:50;4.30;;;0.90;;
5845;SDS011;2949;50.778;7.094;2023-03-14T14:29:22;4.63;;;0.80;;
5845;SDS011;2949;50.778;7.094;2023-03-14T14:32:27;7.73;;;1.87;;
5845;SDS011;2949;50.778;7.094;2023-03-14T14:34:46;1.80;;;1.00;;
5845;SDS011;2949;50.778;7.094;2023-03-14T14:37:22;12.17;;;2.23;;
5845;SDS011;2949;50.778;7.094;2023-03-14T14:40:08;10.73;;;1.67;;
5845;SDS011;2949;50.778;7.094;2023-03-14T14:42:43;9.27;;;1.57;;
5845;SDS011;2949;50.778;7.094;2023-03-14T14:45:12;9.13;;;1.40;;
5845;SDS011;2949;50.778;7.094;2023-03-14T14:48:15;5.67;;;1.60;;
5845;SDS011;2949;50.778;7.094;2023-03-14T14:50:39;12.40;;;1.50;;
5845;SDS011;2949;50.778;7.094;2023-03-14T14:55:56;12.40;;;1.80;;
5845;SDS011;2949;50.778;7.094;2023-03-14T14:58:34;8.73;;;1.50;;
5845;SDS011;2949;50.778;7.094;2023-03-14T15:03:33;8.83;;;2.13;;
5845;SDS011;2949;50.778;7.094;2023-03-14T15:06:00;7.93;;;1.53;;
5845;SDS011;2949;50.778;7.094;2023-03-14T15:08:27;8.00;;;1.70;;
5845;SDS011;2949;50.778;7.094;2023-03-14T15:10:53;10.03;;;1.87;;
5845;SDS011;2949;50.778;7.094;2023-03-14T15:13:20;17.50;;;2.00;;
5845;SDS011;2949;50.778;7.094;2023-03-14T15:15:45;11.27;;;1.87;;
5845;SDS011;2949;50.778;7.094;2023-03-14T15:18:20;20.53;;;2.37;;
5845;SDS011;2949;50.778;7.094;2023-03-14T15:20:46;19.90;;;2.27;;
5845;SDS011;2949;50.778;7.094;2023-03-14T15:23:13;12.97;;;2.53;;
5845;SDS011;2949;50.778;7.094;2023-03-14T15:25:41;14.40;;;2.63;;
5845;SDS011;2949;50.778;7.094;2023-03-14T15:28:11;8.90;;;2.30;;
5845;SDS011;2949;50.778;7.094;2023-03-14T15:30:44;7.80;;;1.47;;
5845;SDS011;2949;50.778;7.094;2023-03-14T15:33:11;17.40;;;2.90;;
5845;SDS011;2949;50.778;7.094;2023-03-14T15:35:37;9.30;;;1.87;;
5845;SDS011;2949;50.778;7.094;2023-03-14T15:38:03;12.23;;;2.13;;
5845;SDS011;2949;50.778;7.094;2023-03-14T15:40:28;15.00;;;2.47;;
5845;SDS011;2949;50.778;7.094;2023-03-14T15:42:54;11.50;;;3.03;;
5845;SDS011;2949;50.778;7.094;2023-03-14T15:45:20;13.50;;;2.00;;
5845;SDS011;2949;50.778;7.094;2023-03-14T15:47:45;9.33;;;2.00;;
5845;SDS011;2949;50.778;7.094;2023-03-14T15:50:11;8.00;;;1.43;;
5845;SDS011;2949;50.778;7.094;2023-03-14T15:52:37;6.27;;;2.20;;
5845;SDS011;2949;50.778;7.094;2023-03-14T15:55:03;13.27;;;2.40;;
5845;SDS011;2949;50.778;7.094;2023-03-14T15:57:28;7.10;;;1.80;;
5845;SDS011;2949;50.778;7.094;2023-03-14T15:59:54;11.47;;;2.37;;
5845;SDS011;2949;50.778;7.094;2023-03-14T16:02:19;14.20;;;2.27;;
5845;SDS011;2949;50.778;7.094;2023-03-14T16:04:45;12.60;;;2.50;;
5845;SDS011;2949;50.778;7.094;2023-03-14T16:07:11;7.40;;;2.03;;
5845;SDS011;2949;50.778;7.094;2023-03-14T16:09:36;11.20;;;2.50;;
5845;SDS011;2949;50.778;7.094;2023-03-14T16:12:02;4.60;;;1.90;;
5845;SDS011;2949;50.778;7.094;2023-03-14T16:14:29;6.50;;;2.30;;
5845;SDS011;2949;50.778;7.094;2023-03-14T16:16:55;11.40;;;2.10;;
5845;SDS011;2949;50.778;7.094;2023-03-14T16:19:24;14.63;;;2.30;;
5845;SDS011;2949;50.778;7.094;2023-03-14T16:21:51;13.50;;;1.60;;
5845;SDS011;2949;50.778;7.094;2023-03-14T16:24:17;11.07;;;1.80;;
5845;SDS011;2949;50.778;7.094;2023-03-14T16:26:42;11.37;;;2.17;;
5845;SDS011;2949;50.778;7.094;2023-03-14T16:29:09;11.50;;;2.20;;
5845;SDS011;2949;50.778;7.094;2023-03-14T16:31:34;9.90;;;1.80;;